Time;durP1;ratioP1;P1;durP2;ratioP2;P2;SDS_P1;SDS_P2;PMS_P1;PMS_P2;Temp;Humidity;BMP_temperature;BMP_pressure;BME280_temperature;BME280_humidity;BME280_pressure;Samples;Min_cycle;Max_cycle;Signal;HPM_P1;HPM_P2
2023/04/17 00:00:16;;;;;;;;;;;10.30;99.90;;;;;;5051244;28;19966;-58
2023/04/17 00:02:43;;;;;;;;;;;10.40;99.90;;;;;;5055319;28;19920;-57
2023/04/17 00:05:10;;;;;;;;;;;10.20;99.90;;;;;;5055316;28;19920;-58
2023/04/17 00:07:38;;;;;;;;;;;10.20;99.90;;;;;;5052807;28;20337;-56
2023/04/17 00:10:06;;;;;;;;;;;10.10;99.90;;;;;;5055618;28;19924;-57
2023/04/17 00:12:32;;;;;;;;;;;10.20;99.90;;;;;;5055469;28;20375;-58
2023/04/17 00:14:59;;;;;;;;;;;10.30;99.90;;;;;;5050806;28;19921;-60
2023/04/17 00:17:25;;;;;;;;;;;10.30;99.90;;;;;;5055001;28;20041;-58
2023/04/17 00:19:52;;;;;;;;;;;10.30;99.90;;;;;;5055207;28;19921;-58
2023/04/17 00:22:18;;;;;;;;;;;10.30;99.90;;;;;;5055143;28;20015;-58
2023/04/17 00:24:46;;;;;;;;;;;10.00;99.90;;;;;;5052814;28;20395;-59
2023/04/17 00:27:13;;;;;;;;;;;9.90;99.90;;;;;;5053248;28;19924;-59
2023/04/17 00:29:39;;;;;;;;;;;10.00;99.90;;;;;;5050454;28;19921;-57
2023/04/17 00:32:06;;;;;;;;;;;10.00;99.90;;;;;;5051566;28;19974;-58
2023/04/17 00:34:32;;;;;;;;;;;10.00;99.90;;;;;;5056268;28;19982;-61
2023/04/17 00:36:59;;;;;;;;;;;10.10;99.90;;;;;;5054696;28;19971;-59
2023/04/17 00:39:25;;;;;;;;;;;10.10;99.90;;;;;;5054151;28;20399;-60
2023/04/17 00:41:53;;;;;;;;;;;10.20;99.90;;;;;;5050689;28;19978;-56
2023/04/17 00:44:20;;;;;;;;;;;10.20;99.90;;;;;;5054099;28;19921;-59
2023/04/17 00:46:46;;;;;;;;;;;10.00;99.90;;;;;;5050952;28;19928;-59
2023/04/17 00:49:13;;;;;;;;;;;10.20;99.90;;;;;;5054340;28;19920;-60
2023/04/17 00:51:39;;;;;;;;;;;10.20;99.90;;;;;;5054449;28;19928;-58
2023/04/17 00:54:07;;;;;;;;;;;10.20;99.90;;;;;;5054432;28;20404;-57
2023/04/17 00:56:33;;;;;;;;;;;10.20;99.90;;;;;;5050206;28;19920;-59
2023/04/17 00:59:02;;;;;;;;;;;10.20;99.90;;;;;;5054439;28;19974;-59
2023/04/17 01:01:28;;;;;;;;;;;10.30;99.90;;;;;;5049918;28;20372;-59
2023/04/17 01:03:55;;;;;;;;;;;10.30;99.90;;;;;;5054273;28;20002;-60
2023/04/17 01:06:21;;;;;;;;;;;10.20;99.90;;;;;;5054175;28;19975;-59
2023/04/17 01:08:48;;;;;;;;;;;10.20;99.90;;;;;;5054368;28;19986;-59
2023/04/17 01:11:14;;;;;;;;;;;10.20;99.90;;;;;;5049800;28;19921;-58
2023/04/17 01:13:45;;;;;;;;;;;10.20;99.90;;;;;;5054483;28;19998;-59
2023/04/17 01:16:13;;;;;;;;;;;10.20;99.90;;;;;;5049883;28;19927;-60
2023/04/17 01:18:39;;;;;;;;;;;10.20;99.90;;;;;;5050325;28;19920;-62
2023/04/17 01:21:06;;;;;;;;;;;10.00;99.90;;;;;;5053655;28;19920;-59
2023/04/17 01:23:42;;;;;;;;;;;9.90;99.90;;;;;;5054284;28;19925;-59
2023/04/17 01:26:09;;;;;;;;;;;10.00;99.90;;;;;;5049736;28;19921;-59
2023/04/17 01:28:36;;;;;;;;;;;10.20;99.90;;;;;;5050848;28;19974;-59
2023/04/17 01:31:02;;;;;;;;;;;10.00;99.90;;;;;;5049789;28;20452;-57
2023/04/17 01:33:29;;;;;;;;;;;10.00;99.90;;;;;;5053982;28;19975;-57
2023/04/17 01:35:56;;;;;;;;;;;9.90;99.90;;;;;;5053719;28;19931;-60
2023/04/17 01:38:22;;;;;;;;;;;9.80;99.90;;;;;;5053748;28;19921;-58
2023/04/17 01:40:48;;;;;;;;;;;9.80;99.90;;;;;;5049482;28;20329;-57
2023/04/17 01:43:16;;;;;;;;;;;9.80;99.90;;;;;;5053405;28;19925;-58
2023/04/17 01:45:43;;;;;;;;;;;9.70;99.90;;;;;;5049074;28;19968;-59
2023/04/17 01:48:09;;;;;;;;;;;9.70;99.90;;;;;;5047230;28;20395;-56
2023/04/17 01:50:36;;;;;;;;;;;9.70;99.90;;;;;;5053624;28;19926;-59
2023/04/17 01:53:02;;;;;;;;;;;9.60;99.90;;;;;;5055990;28;19983;-57
2023/04/17 01:55:29;;;;;;;;;;;9.60;99.90;;;;;;5049192;28;19967;-57
2023/04/17 01:57:55;;;;;;;;;;;9.60;99.90;;;;;;5052989;28;20006;-58
2023/04/17 02:00:23;;;;;;;;;;;9.60;99.90;;;;;;5048814;28;19990;-57
2023/04/17 02:02:50;;;;;;;;;;;9.60;99.90;;;;;;5053048;28;20526;-57
2023/04/17 02:05:16;;;;;;;;;;;9.60;99.90;;;;;;5053135;28;19967;-57
2023/04/17 02:07:43;;;;;;;;;;;9.60;99.90;;;;;;5052950;28;19921;-59
2023/04/17 02:10:10;;;;;;;;;;;9.60;99.90;;;;;;5048866;28;19921;-57
2023/04/17 02:12:36;;;;;;;;;;;9.60;99.90;;;;;;5052715;28;20008;-57
2023/04/17 02:15:03;;;;;;;;;;;9.60;99.90;;;;;;5046549;28;19924;-59
2023/04/17 02:17:30;;;;;;;;;;;9.60;99.90;;;;;;5052594;28;20004;-57
2023/04/17 02:19:57;;;;;;;;;;;9.60;99.90;;;;;;5052791;28;19920;-57
2023/04/17 02:22:23;;;;;;;;;;;9.60;99.90;;;;;;5052757;28;20371;-55
2023/04/17 02:24:50;;;;;;;;;;;9.70;99.90;;;;;;5049242;28;19921;-57
2023/04/17 02:27:16;;;;;;;;;;;9.50;99.90;;;;;;5052740;28;19920;-56
2023/04/17 02:29:43;;;;;;;;;;;9.50;99.90;;;;;;5049076;28;19966;-59
2023/04/17 02:32:09;;;;;;;;;;;9.40;99.90;;;;;;5052821;28;19970;-57
2023/04/17 02:34:37;;;;;;;;;;;9.50;99.90;;;;;;5052832;28;19920;-56
2023/04/17 02:37:04;;;;;;;;;;;9.50;99.90;;;;;;5049284;28;20330;-57
2023/04/17 02:39:31;;;;;;;;;;;9.40;99.90;;;;;;5051989;28;19982;-56
2023/04/17 02:41:57;;;;;;;;;;;9.40;99.90;;;;;;5048666;28;20469;-59
2023/04/17 02:44:23;;;;;;;;;;;9.40;99.90;;;;;;5052497;28;19990;-55
2023/04/17 02:46:50;;;;;;;;;;;9.30;99.90;;;;;;5047845;28;19921;-55
2023/04/17 02:49:16;;;;;;;;;;;9.20;99.90;;;;;;5048727;28;19975;-57
2023/04/17 02:51:44;;;;;;;;;;;9.20;99.90;;;;;;5052400;28;19924;-55
2023/04/17 02:54:11;;;;;;;;;;;9.20;99.90;;;;;;5051547;28;19921;-55
2023/04/17 02:56:37;;;;;;;;;;;9.20;99.90;;;;;;5049307;28;19921;-56
2023/04/17 02:59:04;;;;;;;;;;;9.20;99.90;;;;;;5050835;28;19967;-60
2023/04/17 03:01:32;;;;;;;;;;;9.20;99.90;;;;;;5048724;28;20325;-60
2023/04/17 03:03:59;;;;;;;;;;;9.20;99.90;;;;;;5051035;28;20367;-59
2023/04/17 03:06:26;;;;;;;;;;;9.10;99.90;;;;;;5053371;28;19978;-57
2023/04/17 03:08:54;;;;;;;;;;;9.00;99.90;;;;;;5052015;28;19920;-54
2023/04/17 03:11:21;;;;;;;;;;;9.00;99.90;;;;;;5052799;28;19921;-55
2023/04/17 03:13:47;;;;;;;;;;;9.00;99.90;;;;;;5051468;28;19920;-59
2023/04/17 03:16:14;;;;;;;;;;;9.00;99.90;;;;;;5044785;28;19920;-57
2023/04/17 03:18:40;;;;;;;;;;;8.90;99.90;;;;;;5047532;28;19921;-56
2023/04/17 03:21:07;;;;;;;;;;;8.90;99.90;;;;;;5052025;28;19921;-56
2023/04/17 03:23:34;;;;;;;;;;;9.00;99.90;;;;;;5052022;28;20371;-58
2023/04/17 03:26:02;;;;;;;;;;;9.00;99.90;;;;;;5053626;28;19920;-60
2023/04/17 03:28:28;;;;;;;;;;;8.90;99.90;;;;;;5047929;28;19920;-60
2023/04/17 03:30:58;;;;;;;;;;;9.00;99.90;;;;;;5047874;28;19921;-62
2023/04/17 03:33:25;;;;;;;;;;;9.00;99.90;;;;;;5052329;28;20032;-57
2023/04/17 03:35:51;;;;;;;;;;;9.00;99.90;;;;;;5051849;28;19987;-59
2023/04/17 03:38:18;;;;;;;;;;;9.00;99.90;;;;;;5051707;28;20342;-57
2023/04/17 03:40:44;;;;;;;;;;;8.90;99.90;;;;;;5047492;28;19974;-56
2023/04/17 03:43:12;;;;;;;;;;;8.90;99.90;;;;;;5052058;28;19924;-58
2023/04/17 03:45:39;;;;;;;;;;;8.80;99.90;;;;;;5047779;28;19967;-57
2023/04/17 03:48:06;;;;;;;;;;;8.80;99.90;;;;;;5051184;28;19924;-57
2023/04/17 03:50:32;;;;;;;;;;;8.80;99.90;;;;;;5051588;28;20433;-56
2023/04/17 03:52:59;;;;;;;;;;;8.70;99.90;;;;;;5051532;28;19947;-57
2023/04/17 03:55:25;;;;;;;;;;;8.70;99.90;;;;;;5047459;28;19932;-60
2023/04/17 03:57:52;;;;;;;;;;;8.70;99.90;;;;;;5051535;28;19924;-57
2023/04/17 04:00:20;;;;;;;;;;;8.70;99.90;;;;;;5046231;28;19921;-57
2023/04/17 04:02:47;;;;;;;;;;;8.60;99.90;;;;;;5051577;28;19931;-57
2023/04/17 04:05:14;;;;;;;;;;;8.60;99.90;;;;;;5053342;28;19920;-60
2023/04/17 04:07:41;;;;;;;;;;;8.60;99.90;;;;;;5051670;28;19921;-59
2023/04/17 04:10:08;;;;;;;;;;;8.60;99.90;;;;;;5050874;28;20371;-60
2023/04/17 04:12:34;;;;;;;;;;;8.60;99.90;;;;;;5055563;28;19921;-57
2023/04/17 04:15:01;;;;;;;;;;;8.70;99.90;;;;;;5046879;28;20338;-57
2023/04/17 04:17:28;;;;;;;;;;;8.60;99.90;;;;;;5055108;28;19934;-56
2023/04/17 04:19:55;;;;;;;;;;;8.60;99.90;;;;;;5054812;28;19921;-57
2023/04/17 04:22:21;;;;;;;;;;;8.70;99.90;;;;;;5055141;28;19947;-57
2023/04/17 04:24:48;;;;;;;;;;;8.60;99.90;;;;;;5051312;28;19925;-59
2023/04/17 04:27:16;;;;;;;;;;;8.60;99.90;;;;;;5055168;28;19920;-58
2023/04/17 04:29:47;;;;;;;;;;;8.60;99.90;;;;;;5050868;28;19932;-59
2023/04/17 04:32:14;;;;;;;;;;;8.60;99.90;;;;;;5055291;28;20414;-60
2023/04/17 04:34:43;;;;;;;;;;;8.60;99.90;;;;;;5055296;28;19925;-60
2023/04/17 04:37:14;;;;;;;;;;;8.60;99.90;;;;;;5051575;28;19921;-56
2023/04/17 04:39:41;;;;;;;;;;;8.60;99.90;;;;;;5050615;28;19925;-59
2023/04/17 04:42:08;;;;;;;;;;;8.60;99.90;;;;;;5055865;28;20050;-59
2023/04/17 04:44:35;;;;;;;;;;;8.60;99.90;;;;;;5051662;28;19974;-59
2023/04/17 04:47:01;;;;;;;;;;;8.70;99.90;;;;;;5054155;28;19920;-60
2023/04/17 04:49:28;;;;;;;;;;;8.60;99.90;;;;;;5054661;28;20383;-60
2023/04/17 04:51:55;;;;;;;;;;;8.60;99.90;;;;;;5055103;28;19921;-60
2023/04/17 04:54:22;;;;;;;;;;;8.60;99.90;;;;;;5050320;28;19921;-60
2023/04/17 04:56:49;;;;;;;;;;;8.70;99.90;;;;;;5047573;28;19925;-60
2023/04/17 04:59:16;;;;;;;;;;;8.70;99.90;;;;;;5046569;28;20033;-58
2023/04/17 05:01:43;;;;;;;;;;;8.70;99.90;;;;;;5050936;28;19928;-57
2023/04/17 05:04:09;;;;;;;;;;;8.60;99.90;;;;;;5052997;28;19920;-57
2023/04/17 05:06:36;;;;;;;;;;;8.70;99.90;;;;;;5053983;28;19925;-56
2023/04/17 05:09:04;;;;;;;;;;;8.70;99.90;;;;;;5054036;28;19978;-56
2023/04/17 05:11:32;;;;;;;;;;;8.60;99.90;;;;;;5052441;28;20322;-59
2023/04/17 05:13:58;;;;;;;;;;;8.60;99.90;;;;;;5051912;28;19921;-55
2023/04/17 05:16:25;;;;;;;;;;;8.70;99.90;;;;;;5049054;28;19921;-58
2023/04/17 05:18:51;;;;;;;;;;;8.70;99.90;;;;;;5053823;28;19924;-55
2023/04/17 05:21:18;;;;;;;;;;;8.70;99.90;;;;;;5053747;28;20268;-57
2023/04/17 05:23:44;;;;;;;;;;;8.70;99.90;;;;;;5054284;28;19920;-58
2023/04/17 05:26:12;;;;;;;;;;;8.70;99.90;;;;;;5049126;28;19951;-58
2023/04/17 05:28:39;;;;;;;;;;;8.60;99.90;;;;;;5053701;28;19927;-56
2023/04/17 05:31:06;;;;;;;;;;;8.70;99.90;;;;;;5047024;28;19974;-60
2023/04/17 05:33:32;;;;;;;;;;;8.70;99.90;;;;;;5053936;28;19924;-54
2023/04/17 05:35:59;;;;;;;;;;;8.70;99.90;;;;;;5053172;28;20264;-56
2023/04/17 05:38:26;;;;;;;;;;;8.70;99.90;;;;;;5053443;28;19975;-54
2023/04/17 05:40:53;;;;;;;;;;;8.80;99.90;;;;;;5049371;28;19921;-52
2023/04/17 05:43:21;;;;;;;;;;;8.80;99.90;;;;;;5053149;28;19982;-56
2023/04/17 05:45:47;;;;;;;;;;;8.80;99.90;;;;;;5045927;28;20387;-53
2023/04/17 05:48:14;;;;;;;;;;;8.80;99.90;;;;;;5052663;28;19978;-59
2023/04/17 05:50:40;;;;;;;;;;;8.80;99.90;;;;;;5053040;28;19928;-57
2023/04/17 05:53:07;;;;;;;;;;;8.80;99.90;;;;;;5049388;28;19924;-57
2023/04/17 05:55:33;;;;;;;;;;;8.70;99.90;;;;;;5050071;28;19975;-57
2023/04/17 05:58:01;;;;;;;;;;;8.60;99.90;;;;;;5055241;28;19950;-59
2023/04/17 06:00:29;;;;;;;;;;;8.70;99.90;;;;;;5050973;28;19920;-56
2023/04/17 06:02:56;;;;;;;;;;;8.60;99.90;;;;;;5052944;28;19924;-59
2023/04/17 06:05:23;;;;;;;;;;;8.60;99.90;;;;;;5052685;28;20397;-55
2023/04/17 06:07:50;;;;;;;;;;;8.70;99.90;;;;;;5052953;28;19921;-57
2023/04/17 06:10:16;;;;;;;;;;;8.80;99.90;;;;;;5048616;28;20543;-60
2023/04/17 06:12:43;;;;;;;;;;;8.90;99.90;;;;;;5048906;28;19921;-60
2023/04/17 06:15:09;;;;;;;;;;;8.80;99.90;;;;;;5043575;28;20018;-61
2023/04/17 06:17:38;;;;;;;;;;;8.90;99.90;;;;;;5052297;28;19969;-59
2023/04/17 06:20:09;;;;;;;;;;;8.90;99.90;;;;;;5052557;28;19979;-57
2023/04/17 06:22:35;;;;;;;;;;;8.80;99.90;;;;;;5052559;28;19921;-60
2023/04/17 06:25:02;;;;;;;;;;;8.80;99.90;;;;;;5050523;28;20003;-60
2023/04/17 06:27:28;;;;;;;;;;;8.90;99.90;;;;;;5054179;28;19932;-60
2023/04/17 06:29:55;;;;;;;;;;;8.80;99.90;;;;;;5053422;28;20315;-59
2023/04/17 06:32:21;;;;;;;;;;;8.90;99.90;;;;;;5046589;28;19948;-58
2023/04/17 06:34:49;;;;;;;;;;;8.90;99.90;;;;;;5040063;28;19968;-61
2023/04/17 06:37:15;;;;;;;;;;;9.00;99.90;;;;;;5051337;28;19978;-62
2023/04/17 06:39:42;;;;;;;;;;;9.00;99.90;;;;;;5051976;28;20333;-63
2023/04/17 06:42:08;;;;;;;;;;;9.40;99.90;;;;;;5048842;28;19921;-60
2023/04/17 06:44:35;;;;;;;;;;;9.00;99.90;;;;;;5051515;28;19974;-60
2023/04/17 06:47:02;;;;;;;;;;;9.10;99.90;;;;;;5047349;28;19921;-60
2023/04/17 06:49:28;;;;;;;;;;;9.00;99.90;;;;;;5051688;28;19968;-57
2023/04/17 06:51:56;;;;;;;;;;;8.90;99.90;;;;;;5050780;28;20476;-61
2023/04/17 06:54:23;;;;;;;;;;;9.00;99.90;;;;;;5051412;28;19974;-62
2023/04/17 06:56:50;;;;;;;;;;;9.00;99.90;;;;;;5048079;28;19924;-60
2023/04/17 06:59:16;;;;;;;;;;;9.00;99.90;;;;;;5050369;28;20635;-57
2023/04/17 07:01:43;;;;;;;;;;;9.00;99.90;;;;;;5048423;28;19974;-57
2023/04/17 07:04:09;;;;;;;;;;;9.20;99.90;;;;;;5048195;28;19928;-63
2023/04/17 07:06:37;;;;;;;;;;;9.10;99.90;;;;;;5047767;28;19929;-61
2023/04/17 07:09:04;;;;;;;;;;;9.20;99.90;;;;;;5048109;28;20327;-61
2023/04/17 07:11:31;;;;;;;;;;;9.30;99.90;;;;;;5051021;28;19974;-61
2023/04/17 07:13:57;;;;;;;;;;;9.20;99.90;;;;;;5051366;28;20520;-59
2023/04/17 07:16:24;;;;;;;;;;;9.20;99.90;;;;;;5046119;28;19967;-62
2023/04/17 07:18:51;;;;;;;;;;;9.20;99.90;;;;;;5047599;28;19967;-62
2023/04/17 07:21:17;;;;;;;;;;;9.20;99.90;;;;;;5051317;28;19924;-58
2023/04/17 07:23:44;;;;;;;;;;;9.20;99.90;;;;;;5047211;28;19967;-62
2023/04/17 07:26:12;;;;;;;;;;;9.20;99.90;;;;;;5051010;28;20084;-61
2023/04/17 07:28:39;;;;;;;;;;;9.10;99.90;;;;;;5051893;28;19921;-61
2023/04/17 07:31:07;;;;;;;;;;;9.20;99.90;;;;;;5052043;28;19928;-61
2023/04/17 07:33:34;;;;;;;;;;;9.20;99.90;;;;;;5048325;28;20083;-59
2023/04/17 07:36:01;;;;;;;;;;;9.30;99.90;;;;;;5053123;28;19931;-57
2023/04/17 07:38:28;;;;;;;;;;;9.30;99.90;;;;;;5051830;28;19929;-55
2023/04/17 07:40:54;;;;;;;;;;;9.50;99.90;;;;;;5054442;28;19921;-61
2023/04/17 07:43:22;;;;;;;;;;;9.50;99.90;;;;;;5051536;28;19925;-60
2023/04/17 07:45:49;;;;;;;;;;;9.50;99.90;;;;;;5052233;28;20038;-61
2023/04/17 07:48:16;;;;;;;;;;;9.50;99.90;;;;;;5045189;28;20248;-59
2023/04/17 07:50:43;;;;;;;;;;;9.50;99.90;;;;;;5052344;28;20329;-59
2023/04/17 07:53:09;;;;;;;;;;;9.60;99.90;;;;;;5055472;28;19924;-59
2023/04/17 07:55:36;;;;;;;;;;;9.60;99.90;;;;;;5050762;28;19924;-60
2023/04/17 07:58:03;;;;;;;;;;;9.50;99.90;;;;;;5054646;28;19947;-58
2023/04/17 08:00:31;;;;;;;;;;;9.50;99.90;;;;;;5050627;28;19920;-57
2023/04/17 08:02:58;;;;;;;;;;;9.50;99.90;;;;;;5054921;28;19925;-57
2023/04/17 08:05:24;;;;;;;;;;;9.60;99.90;;;;;;5054656;28;19921;-60
2023/04/17 08:07:51;;;;;;;;;;;9.60;99.90;;;;;;5055117;28;19921;-61
2023/04/17 08:10:18;;;;;;;;;;;9.70;99.90;;;;;;5051194;28;20406;-60
2023/04/17 08:12:45;;;;;;;;;;;9.80;99.90;;;;;;5054854;28;19920;-57
2023/04/17 08:15:11;;;;;;;;;;;10.00;99.90;;;;;;5053497;28;19967;-59
2023/04/17 08:17:39;;;;;;;;;;;10.10;99.90;;;;;;5053543;28;19926;-58
2023/04/17 08:20:10;;;;;;;;;;;10.10;99.90;;;;;;5050946;28;19940;-60
2023/04/17 08:22:38;;;;;;;;;;;10.10;99.90;;;;;;5054696;28;19931;-60
2023/04/17 08:25:08;;;;;;;;;;;10.00;99.90;;;;;;5051306;28;20291;-57
2023/04/17 08:27:34;;;;;;;;;;;9.90;99.90;;;;;;5050884;28;19927;-61
2023/04/17 08:30:02;;;;;;;;;;;9.80;99.90;;;;;;5052823;28;19925;-60
2023/04/17 08:32:28;;;;;;;;;;;9.90;99.90;;;;;;5055069;28;19925;-60
2023/04/17 08:34:57;;;;;;;;;;;10.00;99.90;;;;;;5055877;28;20353;-60
2023/04/17 08:37:23;;;;;;;;;;;10.20;99.90;;;;;;5062874;28;19921;-60
2023/04/17 08:39:51;;;;;;;;;;;10.20;99.90;;;;;;5056121;28;19938;-60
2023/04/17 08:42:18;;;;;;;;;;;10.60;99.90;;;;;;5051746;28;19931;-58
2023/04/17 08:44:44;;;;;;;;;;;10.70;99.90;;;;;;5050721;28;20380;-59
2023/04/17 08:47:12;;;;;;;;;;;10.80;99.90;;;;;;5052679;28;19921;-57
2023/04/17 08:49:42;;;;;;;;;;;11.10;99.90;;;;;;5041434;28;19982;-61
2023/04/17 08:52:10;;;;;;;;;;;11.20;99.90;;;;;;5052823;28;20007;-62
2023/04/17 08:54:37;;;;;;;;;;;11.10;93.10;;;;;;5053534;28;19931;-64
2023/04/17 08:57:04;;;;;;;;;;;11.10;67.70;;;;;;5047868;28;19921;-62
2023/04/17 08:59:31;;;;;;;;;;;11.20;39.50;;;;;;5051778;28;19927;-61
2023/04/17 09:02:01;;;;;;;;;;;11.20;21.20;;;;;;5051990;28;19920;-61
2023/04/17 09:04:34;;;;;;;;;;;11.20;1.00;;;;;;5056064;28;19928;-60
2023/04/17 09:07:00;;;;;;;;;;;11.20;1.00;;;;;;5053794;28;19921;-61
2023/04/17 09:09:45;;;;;;;;;;;11.30;1.00;;;;;;5047952;28;19921;-61
2023/04/17 09:12:12;;;;;;;;;;;11.30;1.00;;;;;;5049881;28;19924;-63
2023/04/17 09:14:38;;;;;;;;;;;11.20;1.00;;;;;;5052935;28;19978;-62
2023/04/17 09:17:05;;;;;;;;;;;11.40;1.00;;;;;;5046924;28;19921;-62
2023/04/17 09:19:31;;;;;;;;;;;11.40;1.00;;;;;;5053637;28;20033;-63
2023/04/17 09:22:16;;;;;;;;;;;11.50;1.00;;;;;;5053007;28;19978;-61
2023/04/17 09:24:44;;;;;;;;;;;11.60;1.00;;;;;;5051612;28;19988;-63
2023/04/17 09:27:21;;;;;;;;;;;11.80;99.90;;;;;;5050290;28;20038;-62
2023/04/17 09:29:57;;;;;;;;;;;11.80;99.90;;;;;;5045449;28;20279;-62
2023/04/17 09:32:25;;;;;;;;;;;11.90;1.00;;;;;;5053478;28;19921;-60
2023/04/17 09:34:52;;;;;;;;;;;12.10;99.90;;;;;;5046685;28;19921;-62
2023/04/17 09:37:18;;;;;;;;;;;12.40;99.90;;;;;;5054022;28;19936;-63
2023/04/17 09:39:56;;;;;;;;;;;12.30;99.90;;;;;;5052752;28;20291;-61
2023/04/17 09:42:23;;;;;;;;;;;12.20;63.40;;;;;;5045100;28;19975;-60
2023/04/17 09:44:49;;;;;;;;;;;12.30;99.90;;;;;;5050590;28;19925;-61
2023/04/17 09:47:17;;;;;;;;;;;12.10;99.90;;;;;;5050859;28;19955;-64
2023/04/17 09:49:48;;;;;;;;;;;12.10;99.90;;;;;;5044716;28;20454;-62
2023/04/17 09:52:15;;;;;;;;;;;12.00;99.90;;;;;;5049322;28;19924;-63
2023/04/17 09:54:42;;;;;;;;;;;12.20;99.90;;;;;;5051299;28;19979;-61
2023/04/17 09:57:11;;;;;;;;;;;12.40;99.90;;;;;;5048569;28;19920;-62
2023/04/17 09:59:38;;;;;;;;;;;12.50;99.90;;;;;;5047689;28;21457;-63
2023/04/17 10:02:07;;;;;;;;;;;12.70;99.90;;;;;;5049056;28;19924;-61
2023/04/17 10:04:33;;;;;;;;;;;12.80;99.90;;;;;;5052951;28;19924;-62
2023/04/17 10:07:01;;;;;;;;;;;12.80;99.90;;;;;;5052045;28;20377;-62
2023/04/17 10:09:28;;;;;;;;;;;12.90;99.90;;;;;;5051881;28;20399;-63
2023/04/17 10:11:56;;;;;;;;;;;13.30;99.90;;;;;;5048835;28;19967;-60
2023/04/17 10:14:26;;;;;;;;;;;13.50;99.90;;;;;;5051315;28;19928;-62
2023/04/17 10:16:53;;;;;;;;;;;13.50;99.90;;;;;;5050656;28;19925;-61
2023/04/17 10:19:23;;;;;;;;;;;13.60;35.40;;;;;;5051936;28;19920;-61
2023/04/17 10:22:05;;;;;;;;;;;13.50;1.00;;;;;;5051482;28;20267;-63
2023/04/17 10:24:31;;;;;;;;;;;13.10;1.00;;;;;;5049883;28;19920;-62
2023/04/17 10:26:58;;;;;;;;;;;13.10;1.00;;;;;;5051613;28;19978;-60
2023/04/17 10:29:39;;;;;;;;;;;13.00;1.00;;;;;;5051762;28;19978;-64
2023/04/17 10:32:27;;;;;;;;;;;13.20;1.00;;;;;;5048646;28;19920;-64
2023/04/17 10:34:57;;;;;;;;;;;13.30;1.00;;;;;;5050347;28;20421;-63
2023/04/17 10:37:38;;;;;;;;;;;13.10;1.00;;;;;;5047519;28;20437;-63
2023/04/17 10:40:08;;;;;;;;;;;12.70;1.00;;;;;;5043011;28;19921;-64
2023/04/17 10:42:35;;;;;;;;;;;12.70;26.50;;;;;;5051600;28;20303;-62
2023/04/17 10:45:04;;;;;;;;;;;13.00;93.50;;;;;;5046525;28;19967;-63
2023/04/17 10:47:32;;;;;;;;;;;13.20;1.00;;;;;;5051114;28;19921;-59
2023/04/17 10:50:02;;;;;;;;;;;13.40;1.00;;;;;;5051615;28;20426;-61
2023/04/17 10:52:36;;;;;;;;;;;13.40;1.00;;;;;;5051741;28;19982;-61
2023/04/17 10:55:03;;;;;;;;;;;13.10;1.00;;;;;;5047994;28;19928;-62
2023/04/17 10:57:45;;;;;;;;;;;13.30;1.00;;;;;;5050818;28;19920;-61
2023/04/17 11:00:12;;;;;;;;;;;13.70;1.00;;;;;;5041547;28;20006;-63
2023/04/17 11:02:38;;;;;;;;;;;13.80;1.00;;;;;;5051359;28;19986;-62
2023/04/17 11:05:07;;;;;;;;;;;13.40;1.00;;;;;;5050956;28;19921;-60
2023/04/17 11:07:35;;;;;;;;;;;13.30;1.00;;;;;;5051356;28;19951;-61
2023/04/17 11:10:05;;;;;;;;;;;13.00;1.00;;;;;;5047014;28;20060;-60
2023/04/17 11:12:32;;;;;;;;;;;13.20;1.00;;;;;;5051628;28;19920;-61
2023/04/17 11:15:01;;;;;;;;;;;13.40;1.00;;;;;;5047743;28;19921;-63
2023/04/17 11:17:27;;;;;;;;;;;13.40;1.00;;;;;;5051233;28;20296;-62
2023/04/17 11:19:54;;;;;;;;;;;13.50;1.00;;;;;;5051664;28;19921;-61
2023/04/17 11:22:22;;;;;;;;;;;13.20;99.90;;;;;;5051200;28;20310;-63
2023/04/17 11:24:50;;;;;;;;;;;13.10;1.00;;;;;;5047919;28;20329;-63
2023/04/17 11:27:16;;;;;;;;;;;13.10;1.00;;;;;;5051019;28;19991;-62
2023/04/17 11:29:44;;;;;;;;;;;13.30;1.00;;;;;;5051397;28;19971;-63
2023/04/17 11:32:11;;;;;;;;;;;13.40;1.00;;;;;;5052170;28;19925;-63
2023/04/17 11:34:37;;;;;;;;;;;13.40;99.90;;;;;;5051145;28;19920;-62
2023/04/17 11:37:04;;;;;;;;;;;13.60;99.90;;;;;;5050379;28;20334;-62
2023/04/17 11:39:33;;;;;;;;;;;13.90;99.90;;;;;;5050487;28;20330;-62
2023/04/17 11:42:01;;;;;;;;;;;13.90;99.90;;;;;;5049467;28;19924;-63
2023/04/17 11:44:28;;;;;;;;;;;13.80;99.90;;;;;;5047385;28;19921;-64
2023/04/17 11:46:57;;;;;;;;;;;14.00;99.90;;;;;;5046674;28;19924;-62
2023/04/17 11:49:24;;;;;;;;;;;14.30;99.90;;;;;;5051106;28;19999;-61
2023/04/17 11:51:50;;;;;;;;;;;14.30;99.90;;;;;;5050836;28;19947;-63
2023/04/17 11:54:20;;;;;;;;;;;14.30;99.90;;;;;;5051380;28;19928;-63
2023/04/17 11:56:58;;;;;;;;;;;14.50;99.90;;;;;;5045068;28;19920;-68
2023/04/17 11:59:29;;;;;;;;;;;14.50;99.90;;;;;;5050899;28;19920;-66
2023/04/17 12:01:58;;;;;;;;;;;14.30;99.90;;;;;;5047331;28;20291;-66
2023/04/17 12:04:24;;;;;;;;;;;14.60;99.90;;;;;;5050905;28;20437;-65
2023/04/17 12:06:51;;;;;;;;;;;14.80;99.90;;;;;;5050495;28;19929;-66
2023/04/17 12:09:19;;;;;;;;;;;14.40;99.90;;;;;;5050490;28;19924;-66
2023/04/17 12:11:46;;;;;;;;;;;14.30;99.90;;;;;;5044319;28;19921;-67
2023/04/17 12:14:14;;;;;;;;;;;14.70;99.90;;;;;;5055623;28;19946;-68
2023/04/17 12:16:40;;;;;;;;;;;14.50;99.90;;;;;;5049586;28;19925;-68
2023/04/17 12:19:08;;;;;;;;;;;14.40;99.90;;;;;;5051418;28;20379;-64
2023/04/17 12:21:34;;;;;;;;;;;14.20;99.90;;;;;;5049623;28;19925;-63
2023/04/17 12:24:01;;;;;;;;;;;14.40;99.90;;;;;;5049177;28;19924;-65
2023/04/17 12:26:27;;;;;;;;;;;14.70;99.90;;;;;;5050496;28;19999;-65
2023/04/17 12:28:56;;;;;;;;;;;14.70;99.90;;;;;;5057248;28;20337;-69
2023/04/17 12:31:23;;;;;;;;;;;14.40;99.90;;;;;;5048053;28;20571;-61
2023/04/17 12:33:51;;;;;;;;;;;14.20;99.90;;;;;;5051187;28;19925;-61
2023/04/17 12:36:17;;;;;;;;;;;14.20;99.90;;;;;;5054604;28;19982;-61
2023/04/17 12:38:44;;;;;;;;;;;14.10;99.90;;;;;;5051821;28;19921;-61
2023/04/17 12:41:11;;;;;;;;;;;14.40;99.90;;;;;;5049549;28;20394;-61
2023/04/17 12:43:37;;;;;;;;;;;14.80;99.90;;;;;;5054315;28;19924;-62
2023/04/17 12:46:04;;;;;;;;;;;14.30;99.90;;;;;;5050273;28;19925;-61
2023/04/17 12:48:32;;;;;;;;;;;14.30;99.90;;;;;;5049288;28;19970;-61
2023/04/17 12:50:59;;;;;;;;;;;14.50;99.90;;;;;;5051467;28;19976;-59
2023/04/17 12:53:25;;;;;;;;;;;14.40;99.90;;;;;;5053877;28;20600;-60
2023/04/17 12:55:52;;;;;;;;;;;14.10;99.90;;;;;;5052870;28;19943;-59
2023/04/17 12:58:18;;;;;;;;;;;14.30;99.90;;;;;;5053684;28;19967;-61
2023/04/17 13:00:46;;;;;;;;;;;14.60;99.90;;;;;;5048861;28;19925;-60
2023/04/17 13:03:12;;;;;;;;;;;14.60;99.90;;;;;;5053286;28;19920;-58
2023/04/17 13:05:40;;;;;;;;;;;14.40;99.90;;;;;;5053745;28;19994;-58
2023/04/17 13:08:11;;;;;;;;;;;14.30;99.90;;;;;;5053215;28;19920;-62
2023/04/17 13:10:37;;;;;;;;;;;15.60;99.90;;;;;;5049369;28;20015;-61
2023/04/17 13:13:04;;;;;;;;;;;14.10;99.90;;;;;;5053518;28;19920;-59
2023/04/17 13:15:31;;;;;;;;;;;14.40;99.90;;;;;;5049245;28;20019;-61
2023/04/17 13:17:58;;;;;;;;;;;14.70;99.90;;;;;;5052931;28;19974;-59
2023/04/17 13:20:25;;;;;;;;;;;15.40;99.90;;;;;;5053142;28;19943;-61
2023/04/17 13:22:52;;;;;;;;;;;15.30;99.90;;;;;;5053853;28;19921;-57
2023/04/17 13:25:19;;;;;;;;;;;15.40;99.90;;;;;;5045960;28;19971;-57
2023/04/17 13:27:45;;;;;;;;;;;15.00;99.90;;;;;;5050111;28;19921;-59
2023/04/17 13:30:12;;;;;;;;;;;14.80;99.90;;;;;;5048516;28;19925;-56
2023/04/17 13:32:39;;;;;;;;;;;14.70;99.90;;;;;;5053848;28;19982;-59
2023/04/17 13:35:07;;;;;;;;;;;14.60;99.90;;;;;;5048147;28;20015;-56
2023/04/17 13:37:34;;;;;;;;;;;14.50;99.90;;;;;;5050944;28;19921;-57
2023/04/17 13:40:03;;;;;;;;;;;14.70;99.90;;;;;;5049957;28;19967;-60
2023/04/17 13:42:30;;;;;;;;;;;14.70;99.90;;;;;;5052076;28;20376;-58
2023/04/17 13:44:56;;;;;;;;;;;14.80;99.90;;;;;;5047850;28;19974;-59
2023/04/17 13:47:23;;;;;;;;;;;14.90;99.90;;;;;;5050278;28;19921;-57
2023/04/17 13:49:49;;;;;;;;;;;14.90;99.90;;;;;;5053508;28;19921;-59
2023/04/17 13:52:16;;;;;;;;;;;15.00;99.90;;;;;;5053282;28;19920;-60
2023/04/17 13:54:42;;;;;;;;;;;15.00;99.90;;;;;;5050940;28;19921;-55
2023/04/17 13:57:10;;;;;;;;;;;14.90;99.90;;;;;;5048846;28;19991;-58
2023/04/17 13:59:37;;;;;;;;;;;14.70;99.90;;;;;;5052664;28;19925;-59
2023/04/17 14:02:03;;;;;;;;;;;14.80;99.90;;;;;;5049899;28;19928;-62
2023/04/17 14:04:30;;;;;;;;;;;14.90;99.90;;;;;;5053437;28;19920;-62
2023/04/17 14:06:57;;;;;;;;;;;14.70;99.90;;;;;;5052346;28;19927;-62
2023/04/17 14:09:23;;;;;;;;;;;14.80;99.90;;;;;;5052966;28;19950;-62
2023/04/17 14:11:50;;;;;;;;;;;14.70;99.90;;;;;;5048989;28;19998;-61
2023/04/17 14:14:18;;;;;;;;;;;14.70;99.90;;;;;;5052019;28;19925;-61
2023/04/17 14:16:46;;;;;;;;;;;14.50;99.90;;;;;;5049538;28;19925;-62
2023/04/17 14:19:12;;;;;;;;;;;14.60;99.90;;;;;;5052888;28;19927;-61
2023/04/17 14:21:39;;;;;;;;;;;14.70;99.90;;;;;;5053684;28;19970;-62
2023/04/17 14:24:05;;;;;;;;;;;14.60;99.90;;;;;;5053318;28;19943;-62